createdAt,value
2018-05-29T12:47:23.791Z,68.7
2018-05-29T12:48:13.607Z,68.7
2018-05-29T12:49:02.577Z,68.6
2018-05-29T12:49:53.693Z,68.6
2018-05-29T12:50:43.478Z,68.4
2018-05-29T12:51:33.798Z,68.3
2018-05-29T12:52:23.874Z,68.1
2018-05-29T12:53:14.596Z,67.9
2018-05-29T12:54:04.029Z,67.8
2018-05-29T12:54:54.413Z,67.6
2018-05-29T12:55:44.210Z,67.4
2018-05-29T12:56:34.182Z,67.2
2018-05-29T12:57:24.670Z,67.1
2018-05-29T12:58:14.331Z,67.1
2018-05-29T12:59:04.564Z,67.2
2018-05-29T12:59:54.503Z,67.3
2018-05-29T13:00:44.528Z,67.3
2018-05-29T13:01:34.599Z,67.3
2018-05-29T13:02:25.033Z,67.4
2018-05-29T13:03:14.697Z,67.4
2018-05-29T13:04:05.093Z,67.4
2018-05-29T13:04:54.843Z,67.4
2018-05-29T13:05:44.349Z,67.4
2018-05-29T13:06:34.994Z,67.5
2018-05-29T13:07:25.021Z,67.5
2018-05-29T13:08:14.269Z,67.5
2018-05-29T13:09:05.136Z,67.5
2018-05-29T13:09:54.627Z,67.4
2018-05-29T13:10:45.610Z,67.3
2018-05-29T13:11:34.793Z,67.1
2018-05-29T13:12:25.118Z,67
2018-05-29T13:13:15.477Z,67
2018-05-29T13:14:05.511Z,67.1
2018-05-29T13:14:55.865Z,67.1
2018-05-29T13:15:45.953Z,67.1
2018-05-29T13:16:35.290Z,67.1
2018-05-29T13:17:26.044Z,67.1
2018-05-29T13:18:16.121Z,67.1
2018-05-29T13:19:05.924Z,67
2018-05-29T13:19:56.262Z,67.1
2018-05-29T13:20:46.042Z,67.1
2018-05-29T13:21:35.823Z,67.1
2018-05-29T13:22:25.940Z,67
2018-05-29T13:23:16.527Z,67
2018-05-29T13:24:06.599Z,67
2018-05-29T13:24:56.640Z,67
2018-05-29T13:25:46.411Z,67
2018-05-29T13:26:36.769Z,66.9
2018-05-29T13:27:26.024Z,66.9
2018-05-29T13:28:16.376Z,66.7
2018-05-29T13:29:06.954Z,66.6
2018-05-29T13:29:57.026Z,66.5
2018-05-29T13:30:46.535Z,66.5
2018-05-29T13:31:36.887Z,66.5
2018-05-29T13:32:27.208Z,66.5
2018-05-29T13:33:16.983Z,66.4
2018-05-29T13:34:06.779Z,66.4
2018-05-29T13:34:57.419Z,66.4
2018-05-29T13:35:47.236Z,66.3
2018-05-29T13:36:37.269Z,66.1
2018-05-29T13:37:27.641Z,65.9
2018-05-29T13:38:17.647Z,65.8
2018-05-29T13:39:07.897Z,65.7
2018-05-29T13:39:57.806Z,65.7
2018-05-29T13:40:47.567Z,65.6
2018-05-29T13:41:37.655Z,65.4
2018-05-29T13:42:27.726Z,65.4
2018-05-29T13:43:17.195Z,65.3
2018-05-29T13:44:07.334Z,65.3
2018-05-29T13:44:57.597Z,65.3
2018-05-29T13:45:47.380Z,65.2
2018-05-29T13:46:38.008Z,65.2
2018-05-29T13:47:27.783Z,65.1
2018-05-29T13:48:18.191Z,65.1
2018-05-29T13:49:08.504Z,65
2018-05-29T13:49:58.555Z,65
2018-05-29T13:50:47.502Z,64.9
2018-05-29T13:51:38.653Z,64.9
2018-05-29T13:52:28.164Z,64.9
2018-05-29T13:53:18.239Z,64.7
2018-05-29T13:54:07.729Z,64.4
2018-05-29T13:54:58.618Z,64.2
2018-05-29T13:55:48.975Z,64.1
2018-05-29T13:56:38.588Z,63.9
2018-05-29T13:57:28.918Z,63.8
2018-05-29T13:58:19.227Z,63.6
2018-05-29T13:59:08.959Z,63.6
2018-05-29T13:59:58.179Z,63.4
2018-05-29T14:00:49.173Z,63.3
2018-05-29T14:01:39.189Z,63.3
2018-05-29T14:02:29.243Z,63.2
2018-05-29T14:03:19.685Z,63.1
2018-05-29T14:04:09.642Z,63.1
2018-05-29T14:04:59.703Z,63.1
2018-05-29T14:05:49.491Z,63
2018-05-29T14:06:39.906Z,62.9
2018-05-29T14:07:29.626Z,62.9
2018-05-29T14:08:19.139Z,62.9
2018-05-29T14:09:10.379Z,62.9
2018-05-29T14:09:59.811Z,62.8
2018-05-29T14:10:49.859Z,62.7
2018-05-29T14:11:39.647Z,62.7
2018-05-29T14:12:29.447Z,62.6
2018-05-29T14:13:19.780Z,62.5
2018-05-29T14:14:10.428Z,62.4
2018-05-29T14:15:00.141Z,62.4
2018-05-29T14:15:49.981Z,62.3
2018-05-29T14:16:40.631Z,62.2
2018-05-29T14:17:29.830Z,62.1
2018-05-29T14:18:20.796Z,62.1
2018-05-29T14:19:10.859Z,62
2018-05-29T14:20:00.900Z,61.9
2018-05-29T14:20:50.723Z,61.8
2018-05-29T14:21:40.714Z,61.8
2018-05-29T14:22:30.516Z,61.6
2018-05-29T14:23:20.669Z,61.6
2018-05-29T14:24:11.206Z,61.4
2018-05-29T14:25:00.122Z,61.4
2018-05-29T14:25:51.039Z,61.3
2018-05-29T14:26:40.911Z,61.3
2018-05-29T14:27:30.878Z,61.1
2018-05-29T14:28:20.983Z,61.1
2018-05-29T14:29:11.297Z,61
2018-05-29T14:30:01.626Z,60.9
2018-05-29T14:30:51.453Z,60.9
2018-05-29T14:31:41.758Z,60.8
2018-05-29T14:32:31.267Z,60.7
2018-05-29T14:33:21.866Z,60.5
2018-05-29T14:34:11.378Z,60.4
2018-05-29T14:35:01.461Z,60.3
2018-05-29T14:35:52.075Z,60.2
2018-05-29T14:36:42.123Z,60.1
2018-05-29T14:37:32.182Z,60
2018-05-29T14:38:22.044Z,59.9
2018-05-29T14:39:12.325Z,59.8
2018-05-29T14:40:01.537Z,59.7
2018-05-29T14:40:51.632Z,59.6
2018-05-29T14:41:42.473Z,59.6
2018-05-29T14:42:32.603Z,59.4
2018-05-29T14:43:22.406Z,59.4
2018-05-29T14:44:13.871Z,59.3
2018-05-29T14:45:02.495Z,59.1
2018-05-29T14:45:52.547Z,59.1
2018-05-29T14:46:42.890Z,58.9
2018-05-29T14:47:32.381Z,58.9
2018-05-29T14:48:22.783Z,58.8
2018-05-29T14:49:13.134Z,58.7
2018-05-29T14:50:03.153Z,58.6
2018-05-29T14:50:52.945Z,58.5
2018-05-29T14:51:43.259Z,58.4
2018-05-29T14:52:33.336Z,58.3
2018-05-29T14:53:23.420Z,58.2
2018-05-29T14:54:13.448Z,58.1
2018-05-29T14:55:03.519Z,58
2018-05-29T14:55:53.348Z,57.9
2018-05-29T14:57:32.921Z,57.7
2018-05-29T14:58:23.826Z,57.6
2018-05-29T14:59:13.291Z,57.5
2018-05-29T15:00:03.932Z,57.4
2018-05-29T15:00:52.317Z,57.3
2018-05-29T15:01:44.057Z,57.2
2018-05-29T15:02:33.289Z,57.1
2018-05-29T15:03:23.659Z,56.9
2018-05-29T15:04:13.982Z,56.9
2018-05-29T15:05:04.327Z,56.8
2018-05-29T15:05:53.055Z,56.6
2018-05-29T15:06:44.150Z,56.6
2018-05-29T15:07:34.467Z,56.4
2018-05-29T15:08:23.595Z,56.3
2018-05-29T15:09:14.244Z,56.2
2018-05-29T15:10:04.708Z,56
2018-05-29T15:10:54.526Z,55.5
2018-05-29T15:11:44.538Z,54.8
2018-05-29T15:12:34.390Z,54
2018-05-29T15:13:24.414Z,53.4
2018-05-29T15:14:14.488Z,52.8
2018-05-29T15:15:04.262Z,52.2
2018-05-29T15:15:54.703Z,51.8
2018-05-29T15:16:44.981Z,51.3
2018-05-29T15:17:34.774Z,50.9
2018-05-29T15:18:25.347Z,50.6
2018-05-29T15:19:14.366Z,50.2
2018-05-29T15:20:04.964Z,49.9
2018-05-29T15:20:55.342Z,49.6
2018-05-29T15:21:45.589Z,49.2
2018-05-29T15:22:34.909Z,48.9
2018-05-29T15:23:25.008Z,48.6
2018-05-29T15:24:14.936Z,48.3
2018-05-29T15:25:05.721Z,48
2018-05-29T15:25:55.674Z,47.7
2018-05-29T15:26:45.430Z,47.4
2018-05-29T15:27:36.073Z,47.2
2018-05-29T15:28:26.143Z,46.9
2018-05-29T15:29:15.096Z,46.6
2018-05-29T15:30:05.647Z,46.4
2018-05-29T15:30:55.725Z,46.2
2018-05-29T15:31:46.361Z,45.9
2018-05-29T15:32:36.143Z,45.8
2018-05-29T15:33:26.497Z,45.6
2018-05-29T15:34:16.264Z,45.3
2018-05-29T15:35:06.664Z,45.1
2018-05-29T15:35:56.680Z,44.9
2018-05-29T15:36:46.744Z,44.8
2018-05-29T15:37:36.517Z,44.6
2018-05-29T15:38:26.569Z,44.4
2018-05-29T15:39:16.967Z,44.3
2018-05-29T15:40:07.005Z,44.1
2018-05-29T15:40:56.689Z,43.9
2018-05-29T15:41:46.854Z,43.8
2018-05-29T15:42:37.233Z,43.6
2018-05-29T15:43:26.722Z,43.5
2018-05-29T15:44:17.335Z,43.3
2018-05-29T15:45:07.118Z,43.2
2018-05-29T15:45:56.875Z,43.1
2018-05-29T15:46:47.510Z,42.9
2018-05-29T15:47:36.794Z,42.8
2018-05-29T15:48:26.844Z,42.8
2018-05-29T15:49:17.706Z,42.6
2018-05-29T15:50:07.180Z,42.5
2018-05-29T15:50:57.555Z,42.4
2018-05-29T15:51:47.862Z,42.3
2018-05-29T15:52:37.424Z,42.1
2018-05-29T15:53:28.755Z,42.1
2018-05-29T15:54:17.750Z,41.9
2018-05-29T15:55:07.846Z,41.8
2018-05-29T15:55:58.180Z,41.8
2018-05-29T15:56:47.490Z,41.6
2018-05-29T15:57:38.088Z,41.6
2018-05-29T15:58:27.846Z,41.4
2018-05-29T15:59:18.440Z,41.4
2018-05-29T16:00:08.593Z,41.3
2018-05-29T16:00:57.706Z,41.2
2018-05-29T16:01:48.629Z,41.1
2018-05-29T16:02:38.683Z,41
2018-05-29T16:03:28.769Z,40.9
2018-05-29T16:04:18.311Z,40.8
2018-05-29T16:05:08.883Z,40.8
2018-05-29T16:05:58.092Z,40.7
2018-05-29T16:06:49.100Z,40.6
2018-05-29T16:07:38.806Z,40.6
2018-05-29T16:08:28.707Z,40.5
2018-05-29T16:09:19.270Z,40.4
2018-05-29T16:10:09.050Z,40.3
2018-05-29T16:10:59.408Z,40.3
2018-05-29T16:11:48.897Z,40.2
2018-05-29T16:12:39.238Z,40.1
2018-05-29T16:13:28.992Z,40.1
2018-05-29T16:14:19.608Z,40
2018-05-29T16:15:09.508Z,39.9
2018-05-29T16:15:59.159Z,39.9
2018-05-29T16:16:49.393Z,39.8
2018-05-29T16:17:39.113Z,39.8
2018-05-29T16:18:28.883Z,39.7
2018-05-29T16:19:19.808Z,39.6
2018-05-29T16:20:09.560Z,39.6
2018-05-29T16:20:59.620Z,39.5
2018-05-29T16:21:49.696Z,39.4
2018-05-29T16:22:39.780Z,39.4
2018-05-29T16:23:29.870Z,39.3
2018-05-29T16:24:20.237Z,39.3
2018-05-29T16:25:10.260Z,39.2
2018-05-29T16:25:59.780Z,39.1
2018-05-29T16:26:50.625Z,39.1
2018-05-29T16:27:40.167Z,39
2018-05-29T16:28:30.551Z,39
2018-05-29T16:29:20.539Z,38.9
2018-05-29T16:30:10.926Z,38.9
2018-05-29T16:31:00.146Z,38.8
2018-05-29T16:31:50.497Z,38.8
2018-05-29T16:32:40.800Z,38.8
2018-05-29T16:33:30.863Z,38.7
2018-05-29T16:34:20.685Z,38.6
2018-05-29T16:35:10.694Z,38.6
2018-05-29T16:36:01.365Z,38.6
2018-05-29T16:36:51.142Z,38.5
2018-05-29T16:37:40.652Z,38.4
2018-05-29T16:38:30.696Z,38.4
2018-05-29T16:39:21.310Z,38.4
2018-05-29T16:40:10.789Z,38.3
2018-05-29T16:41:01.430Z,38.3
2018-05-29T16:41:51.831Z,38.3
2018-05-29T16:42:41.862Z,38.2
2018-05-29T16:43:31.940Z,38.1
2018-05-29T16:44:21.691Z,38.1
2018-05-29T16:45:11.483Z,38.1
2018-05-29T16:46:01.836Z,38
2018-05-29T16:46:52.173Z,38
2018-05-29T16:47:42.315Z,37.9
2018-05-29T16:48:32.295Z,37.9
2018-05-29T16:49:22.063Z,37.9
2018-05-29T16:50:12.208Z,37.9
2018-05-29T16:51:01.930Z,37.8
2018-05-29T16:51:52.228Z,37.8
2018-05-29T16:52:41.703Z,37.8
2018-05-29T16:53:32.305Z,37.7
2018-05-29T16:54:22.140Z,37.7
2018-05-29T16:55:12.725Z,37.6
2018-05-29T16:56:02.818Z,37.6
2018-05-29T16:56:52.294Z,37.6
2018-05-29T16:57:42.907Z,37.6
2018-05-29T16:58:32.422Z,37.5
2018-05-29T16:59:22.844Z,37.4
2018-05-29T17:00:13.160Z,37.4
2018-05-29T17:01:02.879Z,37.4
2018-05-29T17:01:52.967Z,37.4
2018-05-29T17:02:42.802Z,37.3
2018-05-29T17:03:33.460Z,37.3
2018-05-29T17:04:23.236Z,37.3
2018-05-29T17:05:13.601Z,37.3
2018-05-29T17:06:03.044Z,37.3
2018-05-29T17:06:53.396Z,37.2
2018-05-29T17:07:42.897Z,37.2
2018-05-29T17:08:33.277Z,37.1
2018-05-29T17:09:23.662Z,37.1
2018-05-29T17:10:13.720Z,37.1
2018-05-29T17:11:04.029Z,37.1
2018-05-29T17:11:54.097Z,37
2018-05-29T17:12:43.504Z,37
2018-05-29T17:13:33.903Z,36.9
2018-05-29T17:14:24.204Z,36.9
2018-05-29T17:15:14.924Z,36.9
2018-05-29T17:16:04.330Z,36.9
2018-05-29T17:16:54.079Z,36.9
2018-05-29T17:17:44.413Z,36.8
2018-05-29T17:18:34.490Z,36.8
2018-05-29T17:19:24.538Z,36.8
2018-05-29T17:20:14.603Z,36.8
2018-05-29T17:21:04.375Z,36.8
2018-05-29T17:21:54.589Z,36.8
2018-05-29T17:22:44.765Z,36.7
2018-05-29T17:23:33.827Z,36.7
2018-05-29T17:24:24.977Z,36.7
2018-05-29T17:25:14.416Z,36.6
2018-05-29T17:26:05.076Z,36.6
2018-05-29T17:26:55.164Z,36.6
2018-05-29T17:27:44.895Z,36.6
2018-05-29T17:28:35.231Z,36.5
2018-05-29T17:29:24.799Z,36.5
2018-05-29T17:30:14.562Z,36.5
2018-05-29T17:31:05.467Z,36.4
2018-05-29T17:31:55.977Z,36.4
2018-05-29T17:32:45.100Z,36.4
2018-05-29T17:33:34.611Z,36.4
2018-05-29T17:34:25.493Z,36.4
2018-05-29T17:35:15.503Z,36.3
2018-05-29T17:36:05.264Z,36.3
2018-05-29T17:36:55.637Z,36.3
2018-05-29T17:37:45.984Z,36.3
2018-05-29T17:38:36.062Z,36.3
2018-05-29T17:39:26.098Z,36.2
2018-05-29T17:40:15.868Z,36.1
2018-05-29T17:41:06.253Z,36.1
2018-05-29T17:41:56.271Z,36.1
2018-05-29T17:42:46.388Z,36.1
2018-05-29T17:43:36.118Z,36.1
2018-05-29T17:44:26.213Z,36.1
2018-05-29T17:45:15.994Z,36
2018-05-29T17:46:05.805Z,36
2018-05-29T17:46:56.611Z,36
2018-05-29T17:47:46.690Z,35.9
2018-05-29T17:48:36.509Z,35.9
2018-05-29T17:49:26.584Z,35.9
2018-05-29T17:50:16.907Z,35.9
2018-05-29T17:51:06.655Z,35.8
2018-05-29T17:51:56.471Z,35.8
2018-05-29T17:52:46.497Z,35.7
2018-05-29T17:53:37.167Z,35.6
2018-05-29T17:54:26.902Z,35.5
2018-05-29T17:55:17.327Z,35.4
2018-05-29T17:56:07.082Z,35.3
2018-05-29T17:56:57.146Z,35.2
2018-05-29T17:57:46.633Z,35.1
2018-05-29T17:58:37.263Z,35
2018-05-29T17:59:27.017Z,34.9
2018-05-29T18:00:17.667Z,34.8
2018-05-29T18:01:07.507Z,34.6
2018-05-29T18:01:57.512Z,34.5
2018-05-29T18:02:47.327Z,34.4
2018-05-29T18:03:36.634Z,34.3
2018-05-29T18:04:27.687Z,34.2
2018-05-29T18:05:18.030Z,34.1
2018-05-29T18:06:08.071Z,34
2018-05-29T18:06:58.138Z,33.9
2018-05-29T18:07:47.939Z,33.8
2018-05-29T18:08:37.739Z,33.7
2018-05-29T18:09:27.857Z,33.6
2018-05-29T18:10:18.447Z,33.5
2018-05-29T18:11:07.943Z,33.4
2018-05-29T18:11:58.030Z,33.3
2018-05-29T18:12:48.325Z,33.2
2018-05-29T18:13:38.080Z,33.1
2018-05-29T18:14:28.721Z,33
2018-05-29T18:15:18.813Z,32.9
2018-05-29T18:16:08.574Z,32.8
2018-05-29T18:16:58.679Z,32.7
2018-05-29T18:17:47.890Z,32.6
2018-05-29T18:18:38.247Z,32.6
2018-05-29T18:19:28.609Z,32.5
2018-05-29T18:20:18.697Z,32.4
2018-05-29T18:21:08.683Z,32.3
2018-05-29T18:21:59.345Z,32.3
2018-05-29T18:22:48.617Z,32.2
2018-05-29T18:23:39.141Z,32.1
2018-05-29T18:24:28.997Z,32
2018-05-29T18:25:19.048Z,31.9
2018-05-29T18:26:09.413Z,31.8
2018-05-29T18:26:59.433Z,31.8
2018-05-29T18:27:48.665Z,31.8
2018-05-29T18:28:39.275Z,31.6
2018-05-29T18:29:29.365Z,31.6
2018-05-29T18:30:19.385Z,31.6
2018-05-29T18:31:10.687Z,31.4
2018-05-29T18:32:00.141Z,31.4
2018-05-29T18:32:49.920Z,31.4
2018-05-29T18:33:39.363Z,31.3
2018-05-29T18:34:29.983Z,31.3
2018-05-29T18:35:20.074Z,31.2
2018-05-29T18:36:10.400Z,31.1
2018-05-29T18:36:59.882Z,31.1
2018-05-29T18:37:50.265Z,31
2018-05-29T18:38:40.282Z,31
2018-05-29T18:39:30.414Z,30.9
2018-05-29T18:40:19.881Z,30.9
2018-05-29T18:41:10.845Z,30.8
2018-05-29T18:42:00.007Z,30.8
2018-05-29T18:42:50.363Z,30.8
2018-05-29T18:43:40.284Z,30.7
2018-05-29T18:44:31.431Z,30.6
2018-05-29T18:45:20.830Z,30.6
2018-05-29T18:46:10.639Z,30.6
2018-05-29T18:47:01.490Z,30.6
2018-05-29T18:47:50.952Z,30.5
2018-05-29T18:48:40.491Z,30.4
2018-05-29T18:49:31.624Z,30.4
2018-05-29T18:50:22.107Z,30.4
2018-05-29T18:51:11.544Z,30.4
2018-05-29T18:52:01.033Z,30.3
2018-05-29T18:52:51.643Z,30.3
2018-05-29T18:53:41.154Z,30.3
2018-05-29T18:54:31.261Z,30.3
2018-05-29T18:55:21.838Z,30.2
2018-05-29T18:56:11.633Z,30.1
2018-05-29T18:57:01.786Z,30.1
2018-05-29T18:57:50.913Z,30.1
2018-05-29T18:58:42.130Z,30.1
2018-05-29T18:59:31.918Z,30.1
2018-05-29T19:00:22.257Z,30
2018-05-29T19:01:12.272Z,30
2018-05-29T19:02:02.094Z,30
2018-05-29T19:02:52.157Z,29.9
2018-05-29T19:03:42.066Z,29.9
2018-05-29T19:04:32.075Z,29.9
2018-05-29T19:05:22.102Z,29.8
2018-05-29T19:06:12.389Z,29.8
2018-05-29T19:07:02.455Z,29.8
2018-05-29T19:07:52.835Z,29.8
2018-05-29T19:08:42.279Z,29.7
2018-05-29T19:09:32.410Z,29.8
2018-05-29T19:10:22.978Z,29.7
2018-05-29T19:11:12.263Z,29.7
2018-05-29T19:12:02.289Z,29.6
2018-05-29T19:12:52.665Z,29.6
2018-05-29T19:13:42.717Z,29.6
2018-05-29T19:14:32.858Z,29.6
2018-05-29T19:15:23.441Z,29.6
2018-05-29T19:16:13.148Z,29.6
2018-05-29T19:17:03.380Z,29.5
2018-05-29T19:17:52.779Z,29.5
2018-05-29T19:18:42.857Z,29.4
2018-05-29T19:19:33.154Z,29.4
2018-05-29T19:20:22.705Z,29.4
2018-05-29T19:21:13.009Z,29.4
2018-05-29T19:22:03.689Z,29.4
2018-05-29T19:22:54.824Z,29.4
2018-05-29T19:23:43.986Z,29.3
2018-05-29T19:24:33.769Z,29.3
2018-05-29T19:25:23.349Z,29.4
2018-05-29T19:26:14.200Z,29.3
2018-05-29T19:27:04.002Z,29.3
2018-05-29T19:27:53.744Z,29.3
2018-05-29T19:28:43.510Z,29.2
2018-05-29T19:29:33.335Z,29.2
2018-05-29T19:30:24.590Z,29.1
2018-05-29T19:31:13.777Z,29.1
2018-05-29T19:32:04.413Z,29.2
2018-05-29T19:32:54.437Z,29.1
2018-05-29T19:33:44.220Z,29.1
2018-05-29T19:34:34.585Z,29.1
2018-05-29T19:35:24.872Z,29.1
2018-05-29T19:36:14.422Z,29.1
2018-05-29T19:37:04.700Z,29
2018-05-29T19:37:54.797Z,29.1
2018-05-29T19:38:44.876Z,29
2018-05-29T19:39:34.800Z,29
2018-05-29T19:40:24.263Z,29
2018-05-29T19:41:14.587Z,29
2018-05-29T19:42:04.573Z,28.9
2018-05-29T19:42:54.921Z,28.9
2018-05-29T19:43:45.016Z,28.9
2018-05-29T19:44:34.775Z,28.9
2018-05-29T19:45:25.424Z,28.9
2018-05-29T19:46:15.718Z,28.9
2018-05-29T19:47:05.863Z,28.9
2018-05-29T19:47:56.018Z,28.8
2018-05-29T19:48:45.361Z,28.8
2018-05-29T19:49:35.697Z,28.8
2018-05-29T19:50:26.066Z,28.9
2018-05-29T19:51:16.463Z,28.8
2018-05-29T19:52:05.876Z,28.8
2018-05-29T19:52:55.375Z,28.8
2018-05-29T19:53:46.360Z,28.8
2018-05-29T19:54:35.827Z,28.8
2018-05-29T19:55:26.183Z,28.7
2018-05-29T19:56:16.223Z,28.8
2018-05-29T19:57:05.406Z,28.7
2018-05-29T19:57:56.665Z,28.6
2018-05-29T19:58:45.852Z,28.6
2018-05-29T19:59:36.807Z,28.6
2018-05-29T20:00:26.314Z,28.6
2018-05-29T20:01:17.289Z,28.5
2018-05-29T20:02:05.895Z,28.5
2018-05-29T20:02:56.187Z,28.4
2018-05-29T20:03:46.215Z,28.4
2018-05-29T20:04:37.141Z,28.4
2018-05-29T20:05:26.335Z,28.3
2018-05-29T20:06:16.962Z,28.3
2018-05-29T20:07:06.869Z,28.3
2018-05-29T20:07:57.366Z,28.2
2018-05-29T20:08:47.491Z,28.2
2018-05-29T20:09:36.706Z,28.1
2018-05-29T20:10:27.436Z,28.1
2018-05-29T20:11:16.598Z,28.1
2018-05-29T20:12:07.181Z,28
2018-05-29T20:12:57.257Z,28
2018-05-29T20:13:47.913Z,28
2018-05-29T20:14:37.641Z,27.9
2018-05-29T20:15:27.932Z,27.9
2018-05-29T20:16:18.060Z,27.9
2018-05-29T20:17:07.450Z,27.9
2018-05-29T20:20:28.279Z,27.8
2018-05-29T20:21:18.368Z,27.8
2018-05-29T20:22:08.152Z,27.7
2018-05-29T20:22:57.943Z,27.7
2018-05-29T20:23:48.361Z,27.7
2018-05-29T20:24:38.432Z,27.7
2018-05-29T20:25:28.154Z,27.6
2018-05-29T20:26:17.982Z,27.6
2018-05-29T20:27:07.736Z,27.6
2018-05-29T20:27:58.960Z,27.6
2018-05-29T20:28:48.426Z,27.6
2018-05-29T20:29:38.775Z,27.5
2018-05-29T20:30:28.547Z,27.5
2018-05-29T20:31:19.479Z,27.5
2018-05-29T20:32:08.720Z,27.5
2018-05-29T20:32:58.719Z,27.4
2018-05-29T20:33:49.411Z,27.4
2018-05-29T20:34:39.466Z,27.4
2018-05-29T20:35:28.138Z,27.4
2018-05-29T20:36:19.107Z,27.4
2018-05-29T20:37:08.647Z,27.4
2018-05-29T20:37:58.925Z,27.4
2018-05-29T20:38:50.051Z,27.4
2018-05-29T20:39:39.267Z,27.4
2018-05-29T20:40:29.863Z,27.3
2018-05-29T20:41:19.365Z,27.3
2018-05-29T20:42:09.785Z,27.3
2018-05-29T20:42:59.834Z,27.3
2018-05-29T20:43:49.815Z,27.3
2018-05-29T20:44:39.419Z,27.3
2018-05-29T20:45:30.300Z,27.3
2018-05-29T20:46:19.485Z,27.2
2018-05-29T20:47:10.131Z,27.2
2018-05-29T20:48:00.478Z,27.2
2018-05-29T20:48:50.271Z,27.2
2018-05-29T20:49:40.032Z,27.2
2018-05-29T20:50:29.855Z,27.2
2018-05-29T20:51:20.161Z,27.1
2018-05-29T20:52:10.472Z,27.2
2018-05-29T20:53:00.253Z,27.1
2018-05-29T20:53:51.145Z,27.1
2018-05-29T20:54:40.419Z,27.1
2018-05-29T20:55:31.037Z,27.1
2018-05-29T20:56:20.883Z,27.1
2018-05-29T20:57:10.597Z,27.1
2018-05-29T20:58:01.250Z,27.1
2018-05-29T20:58:51.040Z,27.1
2018-05-29T20:59:40.519Z,27.1
2018-05-29T21:00:30.863Z,27.1
2018-05-29T21:01:21.204Z,27.1
2018-05-29T21:02:11.289Z,27.1
2018-05-29T21:03:01.295Z,27
2018-05-29T21:03:51.412Z,27
2018-05-29T21:04:41.412Z,27
2018-05-29T21:05:31.536Z,27
2018-05-29T21:06:21.308Z,27
2018-05-29T21:07:11.922Z,27
2018-05-29T21:08:02.012Z,27
2018-05-29T21:08:52.067Z,27
2018-05-29T21:09:42.169Z,26.9
2018-05-29T21:10:31.570Z,26.9
2018-05-29T21:11:21.984Z,26.9
2018-05-29T21:12:12.349Z,26.9
2018-05-29T21:13:02.086Z,26.9
2018-05-29T21:13:52.411Z,26.9
2018-05-29T21:14:42.481Z,26.9
2018-05-29T21:15:32.053Z,26.9
2018-05-29T21:16:21.761Z,26.9
2018-05-29T21:17:12.701Z,26.9
2018-05-29T21:18:02.475Z,26.9
2018-05-29T21:18:52.600Z,26.9
2018-05-29T21:19:42.679Z,26.9
2018-05-29T21:20:32.356Z,26.9
2018-05-29T21:21:22.346Z,26.9
2018-05-29T21:22:12.569Z,26.9
2018-05-29T21:23:02.543Z,26.9
2018-05-29T21:23:52.826Z,26.9
2018-05-29T21:24:43.159Z,26.9
2018-05-29T21:25:32.753Z,26.9
2018-05-29T21:26:23.085Z,26.9
2018-05-29T21:27:13.384Z,26.9
2018-05-29T21:28:03.169Z,26.9
2018-05-29T21:28:53.247Z,26.9
2018-05-29T21:29:43.281Z,26.9
2018-05-29T21:30:33.684Z,26.9
2018-05-29T21:31:23.739Z,26.9
2018-05-29T21:32:13.756Z,26.9
2018-05-29T21:33:03.559Z,26.9
2018-05-29T21:33:53.323Z,26.9
2018-05-29T21:34:43.419Z,26.9
2018-05-29T21:35:33.698Z,26.9
2018-05-29T21:36:24.097Z,26.9
2018-05-29T21:37:13.906Z,26.8
2018-05-29T21:38:03.903Z,26.8
2018-05-29T21:38:53.437Z,26.9
2018-05-29T21:39:44.318Z,26.8
2018-05-29T21:40:34.405Z,26.9
2018-05-29T21:41:24.145Z,26.8
2018-05-29T21:42:14.208Z,26.8
2018-05-29T21:43:04.288Z,26.8
2018-05-29T21:43:54.627Z,26.8
2018-05-29T21:44:44.685Z,26.8
2018-05-29T21:45:34.765Z,26.8
2018-05-29T21:46:24.865Z,26.8
2018-05-29T21:47:14.601Z,26.8
2018-05-29T21:48:04.400Z,26.8
2018-05-29T21:48:54.474Z,26.8
2018-05-29T21:49:45.109Z,26.8
2018-05-29T21:50:34.565Z,26.8
2018-05-29T21:51:25.243Z,26.8
2018-05-29T21:52:15.269Z,26.8
2018-05-29T21:53:05.045Z,26.8
2018-05-29T21:53:55.397Z,26.8
2018-05-29T21:54:45.197Z,26.8
2018-05-29T21:55:34.965Z,26.8
2018-05-29T21:56:25.291Z,26.8
2018-05-29T21:57:15.385Z,26.8
2018-05-29T21:58:05.151Z,26.8
2018-05-29T21:58:55.504Z,26.8
2018-05-29T21:59:45.283Z,26.8
2018-05-29T22:00:35.360Z,26.8
2018-05-29T22:01:25.425Z,26.8
2018-05-29T22:02:15.760Z,26.8
2018-05-29T22:03:06.095Z,26.8
2018-05-29T22:03:56.170Z,26.8
2018-05-29T22:04:45.381Z,26.8
2018-05-29T22:05:36.003Z,26.8
2018-05-29T22:06:25.785Z,26.8
2018-05-29T22:07:15.827Z,26.8
2018-05-29T22:08:05.669Z,26.8
2018-05-29T22:08:55.454Z,26.8
2018-05-29T22:09:46.626Z,26.8
2018-05-29T22:10:36.423Z,26.8
2018-05-29T22:11:26.747Z,26.8
2018-05-29T22:12:16.222Z,26.8
2018-05-29T22:13:06.865Z,26.8
2018-05-29T22:13:56.693Z,26.8
2018-05-29T22:14:46.555Z,26.8
2018-05-29T22:15:37.067Z,26.8
2018-05-29T22:16:27.100Z,26.8
2018-05-29T22:17:17.176Z,26.7
2018-05-29T22:18:07.279Z,26.7
2018-05-29T22:18:57.292Z,26.7
2018-05-29T22:19:46.828Z,26.7
2018-05-29T22:20:37.408Z,26.7
2018-05-29T22:21:27.603Z,26.7
2018-05-29T22:22:17.279Z,26.8
2018-05-29T22:23:07.366Z,26.7
2018-05-29T22:23:57.166Z,26.7
2018-05-29T22:24:47.774Z,26.7
2018-05-29T22:25:37.551Z,26.7
2018-05-29T22:26:27.922Z,26.7
2018-05-29T22:27:17.969Z,26.7
2018-05-29T22:28:08.019Z,26.7
2018-05-29T22:28:57.811Z,26.7
2018-05-29T22:29:48.115Z,26.7
2018-05-29T22:30:38.536Z,26.7
2018-05-29T22:31:28.013Z,26.7
2018-05-29T22:32:18.374Z,26.7
2018-05-29T22:33:08.415Z,26.7
2018-05-29T22:33:58.194Z,26.7
2018-05-29T22:34:48.003Z,26.7
2018-05-29T22:35:38.650Z,26.7
2018-05-29T22:36:28.079Z,26.7
2018-05-29T22:37:18.711Z,26.6
2018-05-29T22:38:08.520Z,26.7
2018-05-29T22:38:58.820Z,26.7
2018-05-29T22:39:48.640Z,26.6
2018-05-29T22:40:38.661Z,26.7
2018-05-29T22:41:28.462Z,26.7
2018-05-29T22:42:19.134Z,26.6
2018-05-29T22:43:08.594Z,26.6
2018-05-29T22:43:58.437Z,26.6
2018-05-29T22:44:49.001Z,26.7
2018-05-29T22:45:38.179Z,26.7
2018-05-29T22:46:28.849Z,26.7
2018-05-29T22:47:18.605Z,26.6
2018-05-29T22:48:09.292Z,26.6
2018-05-29T22:48:59.634Z,26.6
2018-05-29T22:49:49.693Z,26.6
2018-05-29T22:50:39.476Z,26.7
2018-05-29T22:51:29.836Z,26.6
2018-05-29T22:52:19.590Z,26.6
2018-05-29T22:53:09.644Z,26.6
2018-05-29T22:53:59.772Z,26.6
2018-05-29T22:54:49.226Z,26.6
2018-05-29T22:55:39.289Z,26.6
2018-05-29T22:56:30.028Z,26.6
2018-05-29T22:57:19.980Z,26.7
2018-05-29T22:58:10.050Z,26.6
2018-05-29T22:59:00.124Z,26.6
2018-05-29T22:59:50.133Z,26.6
2018-05-29T23:00:40.492Z,26.6
2018-05-29T23:01:30.583Z,26.6
2018-05-29T23:02:20.355Z,26.6
2018-05-29T23:03:10.407Z,26.6
2018-05-29T23:04:00.150Z,26.6
2018-05-29T23:04:50.820Z,26.6
2018-05-29T23:05:41.070Z,26.6
2018-05-29T23:06:30.385Z,26.6
2018-05-29T23:07:20.807Z,26.6
2018-05-29T23:08:10.514Z,26.6
2018-05-29T23:09:00.830Z,26.6
2018-05-29T23:09:49.808Z,26.6
2018-05-29T23:10:41.055Z,26.6
2018-05-29T23:11:31.318Z,26.6
2018-05-29T23:12:21.385Z,26.6
2018-05-29T23:13:11.493Z,26.6
2018-05-29T23:14:01.209Z,26.6
2018-05-29T23:14:51.589Z,26.6
2018-05-29T23:15:41.066Z,26.6
2018-05-29T23:16:31.636Z,26.6
2018-05-29T23:17:21.474Z,26.6
2018-05-29T23:18:10.985Z,26.6
2018-05-29T23:19:01.868Z,26.6
2018-05-29T23:19:51.671Z,26.6
2018-05-29T23:20:41.158Z,26.6
2018-05-29T23:21:31.512Z,26.6
2018-05-29T23:22:21.550Z,26.6
2018-05-29T23:23:11.940Z,26.6
2018-05-29T23:24:02.279Z,26.6
2018-05-29T23:24:51.462Z,26.6
2018-05-29T23:25:42.125Z,26.6
2018-05-29T23:26:31.945Z,26.6
2018-05-29T23:27:21.949Z,26.6
2018-05-29T23:28:12.307Z,26.6
2018-05-29T23:29:02.115Z,26.6
2018-05-29T23:29:51.935Z,26.6
2018-05-29T23:30:42.235Z,26.6
2018-05-29T23:31:32.567Z,26.6
2018-05-29T23:32:22.349Z,26.6
2018-05-29T23:33:12.996Z,26.6
2018-05-29T23:34:02.748Z,26.6
2018-05-29T23:34:52.818Z,26.6
2018-05-29T23:35:43.053Z,26.6
2018-05-29T23:36:32.408Z,26.6
2018-05-29T23:37:23.270Z,26.6
2018-05-29T23:38:13.091Z,26.5
2018-05-29T23:39:03.403Z,26.5
2018-05-29T23:39:52.658Z,26.5
2018-05-29T23:40:43.548Z,26.5
2018-05-29T23:41:33.350Z,26.6
2018-05-29T23:42:23.388Z,26.6
2018-05-29T23:43:13.167Z,26.6
2018-05-29T23:44:03.799Z,26.5
2018-05-29T23:44:53.305Z,26.5
2018-05-29T23:45:43.664Z,26.6
2018-05-29T23:46:33.965Z,26.6
2018-05-29T23:47:24.054Z,26.5
2018-05-29T23:48:13.827Z,26.6
2018-05-29T23:49:03.878Z,26.5
2018-05-29T23:49:54.268Z,26.6
2018-05-29T23:50:44.016Z,26.5
2018-05-29T23:51:34.337Z,26.6
2018-05-29T23:52:24.426Z,26.5
2018-05-29T23:53:13.946Z,26.5
2018-05-29T23:54:04.636Z,26.5
2018-05-29T23:54:54.035Z,26.5
2018-05-29T23:55:44.699Z,26.5
2018-05-29T23:56:34.464Z,26.5
2018-05-29T23:57:24.818Z,26.5
2018-05-29T23:58:14.394Z,26.5
2018-05-29T23:59:04.245Z,26.5
2018-05-29T23:59:54.225Z,26.5
